sensor_id;sensor_type;location;lat;lon;timestamp;temperature;humidity
28374;DHT22;15616;40.148;-102.718;2022-07-19T00:01:40;26.20;45.10
28374;DHT22;15616;40.148;-102.718;2022-07-19T00:04:06;26.20;45.10
28374;DHT22;15616;40.148;-102.718;2022-07-19T00:06:32;26.10;45.10
28374;DHT22;15616;40.148;-102.718;2022-07-19T00:08:58;26.10;45.20
28374;DHT22;15616;40.148;-102.718;2022-07-19T00:11:24;26.10;45.20
28374;DHT22;15616;40.148;-102.718;2022-07-19T00:13:50;26.10;45.30
28374;DHT22;15616;40.148;-102.718;2022-07-19T00:16:16;26.00;45.30
28374;DHT22;15616;40.148;-102.718;2022-07-19T00:18:43;26.10;45.30
28374;DHT22;15616;40.148;-102.718;2022-07-19T00:21:09;26.00;45.20
28374;DHT22;15616;40.148;-102.718;2022-07-19T00:23:35;26.00;45.20
28374;DHT22;15616;40.148;-102.718;2022-07-19T00:26:02;26.00;45.30
28374;DHT22;15616;40.148;-102.718;2022-07-19T00:28:28;26.00;45.40
28374;DHT22;15616;40.148;-102.718;2022-07-19T00:30:54;26.00;45.40
28374;DHT22;15616;40.148;-102.718;2022-07-19T00:33:20;26.00;45.40
28374;DHT22;15616;40.148;-102.718;2022-07-19T00:35:46;26.00;45.50
28374;DHT22;15616;40.148;-102.718;2022-07-19T00:38:13;26.00;45.50
28374;DHT22;15616;40.148;-102.718;2022-07-19T00:40:41;25.90;46.20
28374;DHT22;15616;40.148;-102.718;2022-07-19T00:43:08;25.90;45.50
28374;DHT22;15616;40.148;-102.718;2022-07-19T00:45:34;25.90;45.60
28374;DHT22;15616;40.148;-102.718;2022-07-19T00:48:00;26.00;45.60
28374;DHT22;15616;40.148;-102.718;2022-07-19T00:50:26;25.90;45.60
28374;DHT22;15616;40.148;-102.718;2022-07-19T00:52:56;26.00;45.60
28374;DHT22;15616;40.148;-102.718;2022-07-19T00:55:30;26.00;45.60
28374;DHT22;15616;40.148;-102.718;2022-07-19T00:57:57;25.90;45.60
28374;DHT22;15616;40.148;-102.718;2022-07-19T01:00:24;25.90;45.60
28374;DHT22;15616;40.148;-102.718;2022-07-19T01:02:52;25.90;45.60
28374;DHT22;15616;40.148;-102.718;2022-07-19T01:05:18;25.90;45.60
28374;DHT22;15616;40.148;-102.718;2022-07-19T01:07:45;25.90;45.60
28374;DHT22;15616;40.148;-102.718;2022-07-19T01:10:13;25.90;45.60
28374;DHT22;15616;40.148;-102.718;2022-07-19T01:12:40;25.90;45.70
28374;DHT22;15616;40.148;-102.718;2022-07-19T01:15:20;25.90;45.70
28374;DHT22;15616;40.148;-102.718;2022-07-19T01:17:47;25.90;45.70
28374;DHT22;15616;40.148;-102.718;2022-07-19T01:20:14;25.90;45.80
28374;DHT22;15616;40.148;-102.718;2022-07-19T01:22:42;25.90;45.80
28374;DHT22;15616;40.148;-102.718;2022-07-19T01:25:09;25.90;45.80
28374;DHT22;15616;40.148;-102.718;2022-07-19T01:27:46;25.90;45.80
28374;DHT22;15616;40.148;-102.718;2022-07-19T01:30:16;25.90;45.80
28374;DHT22;15616;40.148;-102.718;2022-07-19T01:32:42;25.90;45.80
28374;DHT22;15616;40.148;-102.718;2022-07-19T01:35:08;25.90;45.90
28374;DHT22;15616;40.148;-102.718;2022-07-19T01:37:35;25.90;45.90
28374;DHT22;15616;40.148;-102.718;2022-07-19T01:40:06;25.90;45.90
28374;DHT22;15616;40.148;-102.718;2022-07-19T01:42:33;25.90;45.90
28374;DHT22;15616;40.148;-102.718;2022-07-19T01:44:59;25.90;45.90
28374;DHT22;15616;40.148;-102.718;2022-07-19T01:47:25;25.90;46.00
28374;DHT22;15616;40.148;-102.718;2022-07-19T01:49:51;25.80;46.00
28374;DHT22;15616;40.148;-102.718;2022-07-19T01:52:17;25.90;46.10
28374;DHT22;15616;40.148;-102.718;2022-07-19T01:54:43;25.80;46.00
28374;DHT22;15616;40.148;-102.718;2022-07-19T01:57:09;25.90;46.10
28374;DHT22;15616;40.148;-102.718;2022-07-19T01:59:36;25.80;46.00
28374;DHT22;15616;40.148;-102.718;2022-07-19T02:02:03;25.80;46.10
28374;DHT22;15616;40.148;-102.718;2022-07-19T02:04:29;25.80;46.10
28374;DHT22;15616;40.148;-102.718;2022-07-19T02:06:55;25.80;46.10
28374;DHT22;15616;40.148;-102.718;2022-07-19T02:09:21;25.80;46.10
28374;DHT22;15616;40.148;-102.718;2022-07-19T02:11:47;25.80;46.20
28374;DHT22;15616;40.148;-102.718;2022-07-19T02:14:13;25.80;46.20
28374;DHT22;15616;40.148;-102.718;2022-07-19T02:16:39;25.80;46.20
28374;DHT22;15616;40.148;-102.718;2022-07-19T02:19:06;25.80;46.20
28374;DHT22;15616;40.148;-102.718;2022-07-19T02:21:34;25.80;46.20
28374;DHT22;15616;40.148;-102.718;2022-07-19T02:24:00;25.80;46.20
28374;DHT22;15616;40.148;-102.718;2022-07-19T02:26:26;25.80;46.20
28374;DHT22;15616;40.148;-102.718;2022-07-19T02:28:52;25.80;46.20
28374;DHT22;15616;40.148;-102.718;2022-07-19T02:31:19;25.70;46.20
28374;DHT22;15616;40.148;-102.718;2022-07-19T02:33:45;25.70;46.20
28374;DHT22;15616;40.148;-102.718;2022-07-19T02:36:10;25.70;46.30
28374;DHT22;15616;40.148;-102.718;2022-07-19T02:38:37;25.70;46.30
28374;DHT22;15616;40.148;-102.718;2022-07-19T02:41:03;25.70;46.30
28374;DHT22;15616;40.148;-102.718;2022-07-19T02:43:29;25.70;46.30
28374;DHT22;15616;40.148;-102.718;2022-07-19T02:45:55;25.70;46.30
28374;DHT22;15616;40.148;-102.718;2022-07-19T02:48:21;25.70;46.40
28374;DHT22;15616;40.148;-102.718;2022-07-19T02:50:47;25.70;46.40
28374;DHT22;15616;40.148;-102.718;2022-07-19T02:53:13;25.70;46.40
28374;DHT22;15616;40.148;-102.718;2022-07-19T02:55:40;25.70;46.40
28374;DHT22;15616;40.148;-102.718;2022-07-19T02:58:05;25.70;46.50
28374;DHT22;15616;40.148;-102.718;2022-07-19T03:00:32;25.60;46.40
28374;DHT22;15616;40.148;-102.718;2022-07-19T03:02:58;25.70;46.40
28374;DHT22;15616;40.148;-102.718;2022-07-19T03:05:45;25.70;46.50
28374;DHT22;15616;40.148;-102.718;2022-07-19T03:08:11;25.60;46.40
28374;DHT22;15616;40.148;-102.718;2022-07-19T03:10:37;25.60;46.40
28374;DHT22;15616;40.148;-102.718;2022-07-19T03:13:03;25.60;46.40
28374;DHT22;15616;40.148;-102.718;2022-07-19T03:15:29;25.60;46.40
28374;DHT22;15616;40.148;-102.718;2022-07-19T03:17:55;25.60;46.50
28374;DHT22;15616;40.148;-102.718;2022-07-19T03:20:21;25.60;46.40
28374;DHT22;15616;40.148;-102.718;2022-07-19T03:22:48;25.60;46.40
28374;DHT22;15616;40.148;-102.718;2022-07-19T03:25:14;25.60;46.50
28374;DHT22;15616;40.148;-102.718;2022-07-19T03:27:40;25.60;46.50
28374;DHT22;15616;40.148;-102.718;2022-07-19T03:30:06;25.60;46.50
28374;DHT22;15616;40.148;-102.718;2022-07-19T03:32:32;25.60;46.50
28374;DHT22;15616;40.148;-102.718;2022-07-19T03:34:58;25.60;46.50
28374;DHT22;15616;40.148;-102.718;2022-07-19T03:37:24;25.60;46.60
28374;DHT22;15616;40.148;-102.718;2022-07-19T03:39:50;25.60;46.70
28374;DHT22;15616;40.148;-102.718;2022-07-19T03:42:16;25.60;46.60
28374;DHT22;15616;40.148;-102.718;2022-07-19T03:44:42;25.60;46.60
28374;DHT22;15616;40.148;-102.718;2022-07-19T03:47:08;25.60;46.60
28374;DHT22;15616;40.148;-102.718;2022-07-19T03:49:34;25.60;46.60
28374;DHT22;15616;40.148;-102.718;2022-07-19T03:52:00;25.60;46.60
28374;DHT22;15616;40.148;-102.718;2022-07-19T03:54:26;25.60;46.60
28374;DHT22;15616;40.148;-102.718;2022-07-19T03:56:52;25.60;46.70
28374;DHT22;15616;40.148;-102.718;2022-07-19T03:59:20;25.60;46.70
28374;DHT22;15616;40.148;-102.718;2022-07-19T04:01:49;25.60;46.70
28374;DHT22;15616;40.148;-102.718;2022-07-19T04:04:14;25.60;46.80
28374;DHT22;15616;40.148;-102.718;2022-07-19T04:06:40;25.60;46.80
28374;DHT22;15616;40.148;-102.718;2022-07-19T04:09:06;25.50;47.50
28374;DHT22;15616;40.148;-102.718;2022-07-19T04:11:33;25.50;46.80
28374;DHT22;15616;40.148;-102.718;2022-07-19T04:13:59;25.50;46.80
28374;DHT22;15616;40.148;-102.718;2022-07-19T04:16:25;25.50;46.80
28374;DHT22;15616;40.148;-102.718;2022-07-19T04:18:50;25.50;46.80
28374;DHT22;15616;40.148;-102.718;2022-07-19T04:21:16;25.50;46.70
28374;DHT22;15616;40.148;-102.718;2022-07-19T04:23:42;25.50;46.70
28374;DHT22;15616;40.148;-102.718;2022-07-19T04:26:08;25.60;46.80
28374;DHT22;15616;40.148;-102.718;2022-07-19T04:28:34;25.50;46.80
28374;DHT22;15616;40.148;-102.718;2022-07-19T04:31:01;25.50;46.80
28374;DHT22;15616;40.148;-102.718;2022-07-19T04:33:27;25.50;46.80
28374;DHT22;15616;40.148;-102.718;2022-07-19T04:35:53;25.50;46.80
28374;DHT22;15616;40.148;-102.718;2022-07-19T04:38:20;25.60;46.80
28374;DHT22;15616;40.148;-102.718;2022-07-19T04:40:46;25.50;46.80
28374;DHT22;15616;40.148;-102.718;2022-07-19T04:43:12;25.50;46.80
28374;DHT22;15616;40.148;-102.718;2022-07-19T04:45:38;25.60;46.80
28374;DHT22;15616;40.148;-102.718;2022-07-19T04:48:07;25.50;46.80
28374;DHT22;15616;40.148;-102.718;2022-07-19T04:50:33;25.60;46.80
28374;DHT22;15616;40.148;-102.718;2022-07-19T04:52:59;25.60;46.90
28374;DHT22;15616;40.148;-102.718;2022-07-19T04:55:25;25.50;46.80
28374;DHT22;15616;40.148;-102.718;2022-07-19T04:57:51;25.50;46.80
28374;DHT22;15616;40.148;-102.718;2022-07-19T05:00:17;25.50;46.90
28374;DHT22;15616;40.148;-102.718;2022-07-19T05:02:43;25.50;46.80
28374;DHT22;15616;40.148;-102.718;2022-07-19T05:05:10;25.50;46.80
28374;DHT22;15616;40.148;-102.718;2022-07-19T05:07:36;25.60;46.80
28374;DHT22;15616;40.148;-102.718;2022-07-19T05:10:04;25.60;46.70
28374;DHT22;15616;40.148;-102.718;2022-07-19T05:12:30;25.60;46.60
28374;DHT22;15616;40.148;-102.718;2022-07-19T05:14:56;25.60;46.60
28374;DHT22;15616;40.148;-102.718;2022-07-19T05:17:24;25.60;46.60
28374;DHT22;15616;40.148;-102.718;2022-07-19T05:19:50;25.60;46.60
28374;DHT22;15616;40.148;-102.718;2022-07-19T05:22:16;25.60;46.80
28374;DHT22;15616;40.148;-102.718;2022-07-19T05:24:42;25.60;46.80
28374;DHT22;15616;40.148;-102.718;2022-07-19T05:27:08;25.60;46.80
28374;DHT22;15616;40.148;-102.718;2022-07-19T05:29:34;25.60;46.90
28374;DHT22;15616;40.148;-102.718;2022-07-19T05:32:00;25.60;46.90
28374;DHT22;15616;40.148;-102.718;2022-07-19T05:34:26;25.60;46.90
28374;DHT22;15616;40.148;-102.718;2022-07-19T05:36:52;25.60;47.00
28374;DHT22;15616;40.148;-102.718;2022-07-19T05:39:18;25.60;47.00
28374;DHT22;15616;40.148;-102.718;2022-07-19T05:41:44;25.60;47.00
28374;DHT22;15616;40.148;-102.718;2022-07-19T05:44:10;25.60;47.00
28374;DHT22;15616;40.148;-102.718;2022-07-19T05:46:36;25.60;47.10
28374;DHT22;15616;40.148;-102.718;2022-07-19T05:49:07;25.60;47.10
28374;DHT22;15616;40.148;-102.718;2022-07-19T05:51:36;25.60;47.00
28374;DHT22;15616;40.148;-102.718;2022-07-19T05:54:03;25.60;47.00
28374;DHT22;15616;40.148;-102.718;2022-07-19T05:56:30;25.60;47.00
28374;DHT22;15616;40.148;-102.718;2022-07-19T05:58:56;25.60;47.00
28374;DHT22;15616;40.148;-102.718;2022-07-19T06:01:24;25.60;47.10
28374;DHT22;15616;40.148;-102.718;2022-07-19T06:03:52;25.60;47.00
28374;DHT22;15616;40.148;-102.718;2022-07-19T06:06:20;25.50;47.00
28374;DHT22;15616;40.148;-102.718;2022-07-19T06:08:46;25.50;47.00
28374;DHT22;15616;40.148;-102.718;2022-07-19T06:11:14;25.50;47.10
28374;DHT22;15616;40.148;-102.718;2022-07-19T06:13:40;25.50;47.10
28374;DHT22;15616;40.148;-102.718;2022-07-19T06:16:06;25.60;47.20
28374;DHT22;15616;40.148;-102.718;2022-07-19T06:18:33;25.60;47.10
28374;DHT22;15616;40.148;-102.718;2022-07-19T06:21:12;25.60;47.10
28374;DHT22;15616;40.148;-102.718;2022-07-19T06:23:39;25.60;47.10
28374;DHT22;15616;40.148;-102.718;2022-07-19T06:26:06;25.60;47.00
28374;DHT22;15616;40.148;-102.718;2022-07-19T06:28:32;25.60;47.00
28374;DHT22;15616;40.148;-102.718;2022-07-19T06:30:58;25.60;47.00
28374;DHT22;15616;40.148;-102.718;2022-07-19T06:33:25;25.70;47.00
28374;DHT22;15616;40.148;-102.718;2022-07-19T06:35:51;25.70;47.00
28374;DHT22;15616;40.148;-102.718;2022-07-19T06:38:17;25.70;46.90
28374;DHT22;15616;40.148;-102.718;2022-07-19T06:40:43;25.70;46.80
28374;DHT22;15616;40.148;-102.718;2022-07-19T06:43:10;25.70;46.80
28374;DHT22;15616;40.148;-102.718;2022-07-19T06:45:37;25.70;46.90
28374;DHT22;15616;40.148;-102.718;2022-07-19T06:48:03;25.60;46.80
28374;DHT22;15616;40.148;-102.718;2022-07-19T06:50:30;25.60;46.90
28374;DHT22;15616;40.148;-102.718;2022-07-19T06:52:56;25.60;46.90
28374;DHT22;15616;40.148;-102.718;2022-07-19T06:55:22;25.60;47.60
28374;DHT22;15616;40.148;-102.718;2022-07-19T06:57:48;25.60;46.80
28374;DHT22;15616;40.148;-102.718;2022-07-19T07:00:14;25.60;46.80
28374;DHT22;15616;40.148;-102.718;2022-07-19T07:02:42;25.60;46.80
28374;DHT22;15616;40.148;-102.718;2022-07-19T07:05:10;25.60;46.90
28374;DHT22;15616;40.148;-102.718;2022-07-19T07:07:37;25.60;46.80
28374;DHT22;15616;40.148;-102.718;2022-07-19T07:10:05;25.60;46.80
28374;DHT22;15616;40.148;-102.718;2022-07-19T07:12:32;25.70;46.80
28374;DHT22;15616;40.148;-102.718;2022-07-19T07:14:58;25.70;46.70
28374;DHT22;15616;40.148;-102.718;2022-07-19T07:17:25;25.70;46.60
28374;DHT22;15616;40.148;-102.718;2022-07-19T07:19:51;25.70;46.60
28374;DHT22;15616;40.148;-102.718;2022-07-19T07:22:17;25.70;46.50
28374;DHT22;15616;40.148;-102.718;2022-07-19T07:24:43;25.70;46.50
28374;DHT22;15616;40.148;-102.718;2022-07-19T07:27:09;25.80;46.60
28374;DHT22;15616;40.148;-102.718;2022-07-19T07:29:35;25.70;46.50
28374;DHT22;15616;40.148;-102.718;2022-07-19T07:32:01;25.70;46.60
28374;DHT22;15616;40.148;-102.718;2022-07-19T07:34:27;25.70;46.60
28374;DHT22;15616;40.148;-102.718;2022-07-19T07:36:53;25.70;46.70
28374;DHT22;15616;40.148;-102.718;2022-07-19T07:39:19;25.60;46.70
28374;DHT22;15616;40.148;-102.718;2022-07-19T07:41:45;25.70;46.80
28374;DHT22;15616;40.148;-102.718;2022-07-19T07:44:12;25.70;46.80
28374;DHT22;15616;40.148;-102.718;2022-07-19T07:46:38;25.70;46.70
28374;DHT22;15616;40.148;-102.718;2022-07-19T07:49:04;25.70;46.70
28374;DHT22;15616;40.148;-102.718;2022-07-19T07:51:30;25.70;46.60
28374;DHT22;15616;40.148;-102.718;2022-07-19T07:53:58;25.70;46.60
28374;DHT22;15616;40.148;-102.718;2022-07-19T07:56:25;25.70;46.60
28374;DHT22;15616;40.148;-102.718;2022-07-19T07:58:51;25.80;46.70
28374;DHT22;15616;40.148;-102.718;2022-07-19T08:01:17;25.80;46.60
28374;DHT22;15616;40.148;-102.718;2022-07-19T08:03:44;25.80;46.60
28374;DHT22;15616;40.148;-102.718;2022-07-19T08:06:10;25.80;46.50
28374;DHT22;15616;40.148;-102.718;2022-07-19T08:08:37;25.80;46.50
28374;DHT22;15616;40.148;-102.718;2022-07-19T08:11:03;25.90;46.60
28374;DHT22;15616;40.148;-102.718;2022-07-19T08:13:29;25.80;46.50
28374;DHT22;15616;40.148;-102.718;2022-07-19T08:15:55;25.90;46.50
28374;DHT22;15616;40.148;-102.718;2022-07-19T08:18:21;25.90;46.50
28374;DHT22;15616;40.148;-102.718;2022-07-19T08:20:48;25.90;46.40
28374;DHT22;15616;40.148;-102.718;2022-07-19T08:23:14;25.90;46.40
28374;DHT22;15616;40.148;-102.718;2022-07-19T08:25:40;25.90;46.40
28374;DHT22;15616;40.148;-102.718;2022-07-19T08:28:06;25.90;46.40
28374;DHT22;15616;40.148;-102.718;2022-07-19T08:30:32;25.90;46.40
28374;DHT22;15616;40.148;-102.718;2022-07-19T08:32:58;25.90;46.40
28374;DHT22;15616;40.148;-102.718;2022-07-19T08:35:26;25.90;46.40
28374;DHT22;15616;40.148;-102.718;2022-07-19T08:37:52;25.90;46.40
28374;DHT22;15616;40.148;-102.718;2022-07-19T08:40:18;25.90;46.40
28374;DHT22;15616;40.148;-102.718;2022-07-19T08:42:44;25.90;46.40
28374;DHT22;15616;40.148;-102.718;2022-07-19T08:45:11;25.90;46.40
28374;DHT22;15616;40.148;-102.718;2022-07-19T08:47:38;25.90;46.30
28374;DHT22;15616;40.148;-102.718;2022-07-19T08:50:06;26.00;46.40
28374;DHT22;15616;40.148;-102.718;2022-07-19T08:52:34;26.00;46.40
28374;DHT22;15616;40.148;-102.718;2022-07-19T08:55:00;26.00;46.40
28374;DHT22;15616;40.148;-102.718;2022-07-19T08:57:26;26.00;46.30
28374;DHT22;15616;40.148;-102.718;2022-07-19T09:00:11;26.00;46.30
28374;DHT22;15616;40.148;-102.718;2022-07-19T09:02:37;26.00;46.40
28374;DHT22;15616;40.148;-102.718;2022-07-19T09:05:06;26.00;47.10
28374;DHT22;15616;40.148;-102.718;2022-07-19T09:07:35;26.00;46.40
28374;DHT22;15616;40.148;-102.718;2022-07-19T09:10:21;26.00;46.40
28374;DHT22;15616;40.148;-102.718;2022-07-19T09:13:11;26.00;46.40
28374;DHT22;15616;40.148;-102.718;2022-07-19T09:15:48;26.10;46.40
28374;DHT22;15616;40.148;-102.718;2022-07-19T09:20:42;26.10;46.30
28374;DHT22;15616;40.148;-102.718;2022-07-19T09:23:08;26.10;46.40
28374;DHT22;15616;40.148;-102.718;2022-07-19T09:25:45;26.10;46.30
28374;DHT22;15616;40.148;-102.718;2022-07-19T09:28:12;26.10;46.20
28374;DHT22;15616;40.148;-102.718;2022-07-19T09:30:41;26.20;46.20
28374;DHT22;15616;40.148;-102.718;2022-07-19T09:33:16;26.20;46.20
28374;DHT22;15616;40.148;-102.718;2022-07-19T09:35:51;26.20;46.20
28374;DHT22;15616;40.148;-102.718;2022-07-19T09:38:40;26.20;46.20
28374;DHT22;15616;40.148;-102.718;2022-07-19T09:41:19;26.20;46.10
28374;DHT22;15616;40.148;-102.718;2022-07-19T09:43:54;26.20;46.10
28374;DHT22;15616;40.148;-102.718;2022-07-19T09:46:36;26.30;46.00
28374;DHT22;15616;40.148;-102.718;2022-07-19T09:49:11;26.30;46.00
28374;DHT22;15616;40.148;-102.718;2022-07-19T09:51:50;26.30;46.00
28374;DHT22;15616;40.148;-102.718;2022-07-19T09:54:19;26.30;45.90
28374;DHT22;15616;40.148;-102.718;2022-07-19T09:56:47;26.30;45.90
28374;DHT22;15616;40.148;-102.718;2022-07-19T09:59:14;26.30;45.90
28374;DHT22;15616;40.148;-102.718;2022-07-19T10:01:41;26.30;45.90
28374;DHT22;15616;40.148;-102.718;2022-07-19T10:04:12;26.30;45.90
28374;DHT22;15616;40.148;-102.718;2022-07-19T10:06:39;26.40;46.00
28374;DHT22;15616;40.148;-102.718;2022-07-19T10:09:08;26.40;45.90
28374;DHT22;15616;40.148;-102.718;2022-07-19T10:11:34;26.40;45.90
28374;DHT22;15616;40.148;-102.718;2022-07-19T10:14:03;26.40;45.80
28374;DHT22;15616;40.148;-102.718;2022-07-19T10:19:25;26.50;45.70
28374;DHT22;15616;40.148;-102.718;2022-07-19T10:21:54;26.50;45.70
28374;DHT22;15616;40.148;-102.718;2022-07-19T10:29:51;26.40;45.80
28374;DHT22;15616;40.148;-102.718;2022-07-19T10:32:17;26.40;45.90
28374;DHT22;15616;40.148;-102.718;2022-07-19T10:34:44;26.40;45.80
28374;DHT22;15616;40.148;-102.718;2022-07-19T10:37:13;26.40;45.80
28374;DHT22;15616;40.148;-102.718;2022-07-19T10:39:40;26.40;45.80
28374;DHT22;15616;40.148;-102.718;2022-07-19T10:50:13;26.50;45.50
28374;DHT22;15616;40.148;-102.718;2022-07-19T10:52:45;26.50;45.40
28374;DHT22;15616;40.148;-102.718;2022-07-19T10:57:44;26.60;45.30
28374;DHT22;15616;40.148;-102.718;2022-07-19T11:00:29;26.60;45.20
28374;DHT22;15616;40.148;-102.718;2022-07-19T11:05:52;26.60;45.10
28374;DHT22;15616;40.148;-102.718;2022-07-19T11:08:39;26.60;45.10
28374;DHT22;15616;40.148;-102.718;2022-07-19T11:11:07;26.60;45.10
28374;DHT22;15616;40.148;-102.718;2022-07-19T11:13:34;26.70;45.10
28374;DHT22;15616;40.148;-102.718;2022-07-19T11:16:01;26.70;45.00
28374;DHT22;15616;40.148;-102.718;2022-07-19T11:18:29;26.70;44.90
28374;DHT22;15616;40.148;-102.718;2022-07-19T11:21:03;26.70;44.80
28374;DHT22;15616;40.148;-102.718;2022-07-19T11:23:32;26.80;44.90
28374;DHT22;15616;40.148;-102.718;2022-07-19T11:28:39;26.80;44.80
28374;DHT22;15616;40.148;-102.718;2022-07-19T11:31:13;26.80;44.80
28374;DHT22;15616;40.148;-102.718;2022-07-19T11:33:40;26.90;44.70
28374;DHT22;15616;40.148;-102.718;2022-07-19T11:36:06;26.90;44.70
28374;DHT22;15616;40.148;-102.718;2022-07-19T11:38:43;26.90;45.40
28374;DHT22;15616;40.148;-102.718;2022-07-19T11:41:17;26.90;44.70
28374;DHT22;15616;40.148;-102.718;2022-07-19T11:44:06;26.90;44.70
28374;DHT22;15616;40.148;-102.718;2022-07-19T11:46:34;26.90;44.70
28374;DHT22;15616;40.148;-102.718;2022-07-19T11:49:05;26.90;44.70
28374;DHT22;15616;40.148;-102.718;2022-07-19T11:51:32;26.90;44.70
28374;DHT22;15616;40.148;-102.718;2022-07-19T11:54:00;26.90;44.60
28374;DHT22;15616;40.148;-102.718;2022-07-19T11:56:28;26.90;44.60
28374;DHT22;15616;40.148;-102.718;2022-07-19T11:58:58;26.90;44.50
28374;DHT22;15616;40.148;-102.718;2022-07-19T12:01:26;26.90;44.50
28374;DHT22;15616;40.148;-102.718;2022-07-19T12:03:58;27.00;44.50
28374;DHT22;15616;40.148;-102.718;2022-07-19T12:07:19;27.00;44.40
28374;DHT22;15616;40.148;-102.718;2022-07-19T12:09:46;27.00;44.30
28374;DHT22;15616;40.148;-102.718;2022-07-19T12:12:16;27.00;44.40
28374;DHT22;15616;40.148;-102.718;2022-07-19T12:14:43;27.00;44.30
28374;DHT22;15616;40.148;-102.718;2022-07-19T12:17:19;27.00;44.30
28374;DHT22;15616;40.148;-102.718;2022-07-19T12:19:50;27.10;44.30
28374;DHT22;15616;40.148;-102.718;2022-07-19T12:22:35;27.10;44.30
28374;DHT22;15616;40.148;-102.718;2022-07-19T12:25:02;27.10;44.30
28374;DHT22;15616;40.148;-102.718;2022-07-19T12:27:29;27.10;44.30
28374;DHT22;15616;40.148;-102.718;2022-07-19T12:29:56;27.10;44.30
28374;DHT22;15616;40.148;-102.718;2022-07-19T12:32:30;27.10;44.20
28374;DHT22;15616;40.148;-102.718;2022-07-19T12:35:25;27.10;44.10
28374;DHT22;15616;40.148;-102.718;2022-07-19T12:38:03;27.10;44.10
28374;DHT22;15616;40.148;-102.718;2022-07-19T12:40:29;27.10;44.00
28374;DHT22;15616;40.148;-102.718;2022-07-19T12:42:58;27.10;44.00
28374;DHT22;15616;40.148;-102.718;2022-07-19T12:45:49;27.10;43.90
28374;DHT22;15616;40.148;-102.718;2022-07-19T12:48:16;27.20;44.10
28374;DHT22;15616;40.148;-102.718;2022-07-19T12:50:48;27.20;43.90
28374;DHT22;15616;40.148;-102.718;2022-07-19T12:53:15;27.30;43.90
28374;DHT22;15616;40.148;-102.718;2022-07-19T12:55:43;27.30;43.80
28374;DHT22;15616;40.148;-102.718;2022-07-19T12:58:10;27.30;43.80
28374;DHT22;15616;40.148;-102.718;2022-07-19T13:00:38;27.30;43.70
28374;DHT22;15616;40.148;-102.718;2022-07-19T13:03:05;27.40;43.60
28374;DHT22;15616;40.148;-102.718;2022-07-19T13:05:32;27.40;43.40
28374;DHT22;15616;40.148;-102.718;2022-07-19T13:07:58;27.50;43.30
28374;DHT22;15616;40.148;-102.718;2022-07-19T13:10:26;27.50;43.20
28374;DHT22;15616;40.148;-102.718;2022-07-19T13:12:53;27.50;43.10
28374;DHT22;15616;40.148;-102.718;2022-07-19T13:15:19;27.50;43.10
28374;DHT22;15616;40.148;-102.718;2022-07-19T13:17:45;27.60;43.20
28374;DHT22;15616;40.148;-102.718;2022-07-19T13:20:12;27.60;43.00
28374;DHT22;15616;40.148;-102.718;2022-07-19T13:23:03;27.60;43.00
28374;DHT22;15616;40.148;-102.718;2022-07-19T13:25:29;27.60;42.80
28374;DHT22;15616;40.148;-102.718;2022-07-19T13:27:55;27.50;42.90
28374;DHT22;15616;40.148;-102.718;2022-07-19T13:30:21;27.50;43.00
28374;DHT22;15616;40.148;-102.718;2022-07-19T13:32:47;27.50;43.00
28374;DHT22;15616;40.148;-102.718;2022-07-19T13:35:13;27.50;42.90
28374;DHT22;15616;40.148;-102.718;2022-07-19T13:37:39;27.50;42.90
28374;DHT22;15616;40.148;-102.718;2022-07-19T13:40:06;27.50;42.90
28374;DHT22;15616;40.148;-102.718;2022-07-19T13:42:32;27.50;42.90
28374;DHT22;15616;40.148;-102.718;2022-07-19T13:44:58;27.50;42.90
28374;DHT22;15616;40.148;-102.718;2022-07-19T13:47:24;27.50;42.90
28374;DHT22;15616;40.148;-102.718;2022-07-19T13:49:50;27.50;42.90
28374;DHT22;15616;40.148;-102.718;2022-07-19T13:52:16;27.50;42.80
28374;DHT22;15616;40.148;-102.718;2022-07-19T13:54:42;27.50;42.80
28374;DHT22;15616;40.148;-102.718;2022-07-19T13:57:08;27.60;42.70
28374;DHT22;15616;40.148;-102.718;2022-07-19T13:59:34;27.60;42.60
28374;DHT22;15616;40.148;-102.718;2022-07-19T14:02:01;27.60;42.50
28374;DHT22;15616;40.148;-102.718;2022-07-19T14:04:26;27.60;42.40
28374;DHT22;15616;40.148;-102.718;2022-07-19T14:06:52;27.60;42.30
28374;DHT22;15616;40.148;-102.718;2022-07-19T14:09:18;27.70;42.40
28374;DHT22;15616;40.148;-102.718;2022-07-19T14:11:45;27.70;42.40
28374;DHT22;15616;40.148;-102.718;2022-07-19T14:14:12;27.70;42.40
28374;DHT22;15616;40.148;-102.718;2022-07-19T14:16:38;27.70;42.40
28374;DHT22;15616;40.148;-102.718;2022-07-19T14:19:04;27.70;43.10
28374;DHT22;15616;40.148;-102.718;2022-07-19T14:21:30;27.70;42.40
28374;DHT22;15616;40.148;-102.718;2022-07-19T14:24:00;27.80;42.50
28374;DHT22;15616;40.148;-102.718;2022-07-19T14:26:26;27.70;42.30
28374;DHT22;15616;40.148;-102.718;2022-07-19T14:28:52;27.70;42.40
28374;DHT22;15616;40.148;-102.718;2022-07-19T14:31:18;27.80;42.50
28374;DHT22;15616;40.148;-102.718;2022-07-19T14:33:44;27.80;42.40
28374;DHT22;15616;40.148;-102.718;2022-07-19T14:36:10;27.80;42.30
28374;DHT22;15616;40.148;-102.718;2022-07-19T14:38:36;27.80;42.30
28374;DHT22;15616;40.148;-102.718;2022-07-19T14:41:02;27.80;42.30
28374;DHT22;15616;40.148;-102.718;2022-07-19T14:43:28;27.80;42.30
28374;DHT22;15616;40.148;-102.718;2022-07-19T14:45:54;27.80;42.30
28374;DHT22;15616;40.148;-102.718;2022-07-19T14:48:20;27.80;42.30
28374;DHT22;15616;40.148;-102.718;2022-07-19T14:50:46;27.80;42.30
28374;DHT22;15616;40.148;-102.718;2022-07-19T14:53:12;27.80;42.30
28374;DHT22;15616;40.148;-102.718;2022-07-19T14:55:38;27.90;42.20
28374;DHT22;15616;40.148;-102.718;2022-07-19T14:58:04;27.90;42.20
28374;DHT22;15616;40.148;-102.718;2022-07-19T15:00:30;27.90;42.20
28374;DHT22;15616;40.148;-102.718;2022-07-19T15:02:57;28.00;42.10
28374;DHT22;15616;40.148;-102.718;2022-07-19T15:05:23;28.00;42.00
28374;DHT22;15616;40.148;-102.718;2022-07-19T15:07:49;28.00;41.90
28374;DHT22;15616;40.148;-102.718;2022-07-19T15:10:15;28.00;41.90
28374;DHT22;15616;40.148;-102.718;2022-07-19T15:12:41;28.00;41.90
28374;DHT22;15616;40.148;-102.718;2022-07-19T15:15:07;28.10;42.00
28374;DHT22;15616;40.148;-102.718;2022-07-19T15:17:34;28.10;41.90
28374;DHT22;15616;40.148;-102.718;2022-07-19T15:20:00;28.20;41.80